sensor_id;sensor_type;location;lat;lon;timestamp;P1;durP1;ratioP1;P2;durP2;ratioP2
30593;SDS011;33199;47.590;8.300;2023-03-23T00:01:10;1.50;;;1.40;;
30593;SDS011;33199;47.590;8.300;2023-03-23T00:03:40;1.40;;;1.30;;
30593;SDS011;33199;47.590;8.300;2023-03-23T00:06:07;1.60;;;1.50;;
30593;SDS011;33199;47.590;8.300;2023-03-23T00:08:34;1.50;;;1.40;;
30593;SDS011;33199;47.590;8.300;2023-03-23T00:11:12;1.40;;;1.30;;
30593;SDS011;33199;47.590;8.300;2023-03-23T00:13:43;1.42;;;1.33;;
30593;SDS011;33199;47.590;8.300;2023-03-23T00:16:11;3.47;;;1.70;;
30593;SDS011;33199;47.590;8.300;2023-03-23T00:18:44;2.03;;;1.30;;
30593;SDS011;33199;47.590;8.300;2023-03-23T00:21:10;1.75;;;1.65;;
30593;SDS011;33199;47.590;8.300;2023-03-23T00:23:36;1.27;;;1.27;;
30593;SDS011;33199;47.590;8.300;2023-03-23T00:26:03;1.60;;;1.50;;
30593;SDS011;33199;47.590;8.300;2023-03-23T00:28:29;1.35;;;1.35;;
30593;SDS011;33199;47.590;8.300;2023-03-23T00:30:55;2.63;;;1.63;;
30593;SDS011;33199;47.590;8.300;2023-03-23T00:33:23;1.75;;;1.52;;
30593;SDS011;33199;47.590;8.300;2023-03-23T00:35:51;1.48;;;1.38;;
30593;SDS011;33199;47.590;8.300;2023-03-23T00:38:18;1.75;;;1.30;;
30593;SDS011;33199;47.590;8.300;2023-03-23T00:40:44;1.73;;;1.50;;
30593;SDS011;33199;47.590;8.300;2023-03-23T00:43:12;1.63;;;1.40;;
30593;SDS011;33199;47.590;8.300;2023-03-23T00:45:39;1.98;;;1.42;;
30593;SDS011;33199;47.590;8.300;2023-03-23T00:48:04;1.52;;;1.40;;
30593;SDS011;33199;47.590;8.300;2023-03-23T00:50:31;1.77;;;1.65;;
30593;SDS011;33199;47.590;8.300;2023-03-23T00:52:57;1.42;;;1.33;;
30593;SDS011;33199;47.590;8.300;2023-03-23T00:55:23;1.50;;;1.40;;
30593;SDS011;33199;47.590;8.300;2023-03-23T00:57:50;1.48;;;1.27;;
30593;SDS011;33199;47.590;8.300;2023-03-23T01:00:16;1.55;;;1.45;;
30593;SDS011;33199;47.590;8.300;2023-03-23T01:02:43;1.88;;;1.50;;
30593;SDS011;33199;47.590;8.300;2023-03-23T01:05:09;1.67;;;1.55;;
30593;SDS011;33199;47.590;8.300;2023-03-23T01:07:36;1.50;;;1.40;;
30593;SDS011;33199;47.590;8.300;2023-03-23T01:10:02;1.60;;;1.50;;
30593;SDS011;33199;47.590;8.300;2023-03-23T01:12:28;1.60;;;1.50;;
30593;SDS011;33199;47.590;8.300;2023-03-23T01:14:55;1.42;;;1.33;;
30593;SDS011;33199;47.590;8.300;2023-03-23T01:17:21;1.60;;;1.33;;
30593;SDS011;33199;47.590;8.300;2023-03-23T01:19:46;1.60;;;1.50;;
30593;SDS011;33199;47.590;8.300;2023-03-23T01:22:12;1.45;;;1.35;;
30593;SDS011;33199;47.590;8.300;2023-03-23T01:24:38;1.40;;;1.30;;
30593;SDS011;33199;47.590;8.300;2023-03-23T01:27:03;1.38;;;1.27;;
30593;SDS011;33199;47.590;8.300;2023-03-23T01:29:34;1.50;;;1.40;;
30593;SDS011;33199;47.590;8.300;2023-03-23T01:32:01;1.45;;;1.35;;
30593;SDS011;33199;47.590;8.300;2023-03-23T01:34:27;1.70;;;1.60;;
30593;SDS011;33199;47.590;8.300;2023-03-23T01:36:53;1.50;;;1.40;;
30593;SDS011;33199;47.590;8.300;2023-03-23T01:39:18;1.77;;;1.52;;
30593;SDS011;33199;47.590;8.300;2023-03-23T01:41:45;1.60;;;1.50;;
30593;SDS011;33199;47.590;8.300;2023-03-23T01:46:42;1.35;;;1.25;;
30593;SDS011;33199;47.590;8.300;2023-03-23T01:49:18;1.52;;;1.42;;
30593;SDS011;33199;47.590;8.300;2023-03-23T01:51:57;1.15;;;1.05;;
30593;SDS011;33199;47.590;8.300;2023-03-23T01:54:27;1.60;;;1.50;;
30593;SDS011;33199;47.590;8.300;2023-03-23T01:57:04;1.42;;;1.33;;
30593;SDS011;33199;47.590;8.300;2023-03-23T01:59:36;1.98;;;1.48;;
30593;SDS011;33199;47.590;8.300;2023-03-23T02:02:02;1.50;;;1.40;;
30593;SDS011;33199;47.590;8.300;2023-03-23T02:04:29;1.60;;;1.50;;
30593;SDS011;33199;47.590;8.300;2023-03-23T02:06:56;1.70;;;1.58;;
30593;SDS011;33199;47.590;8.300;2023-03-23T02:09:23;1.40;;;1.30;;
30593;SDS011;33199;47.590;8.300;2023-03-23T02:11:50;1.38;;;1.27;;
30593;SDS011;33199;47.590;8.300;2023-03-23T02:14:17;1.67;;;1.58;;
30593;SDS011;33199;47.590;8.300;2023-03-23T02:28:02;1.50;;;1.40;;
30593;SDS011;33199;47.590;8.300;2023-03-23T02:38:55;1.40;;;1.30;;
30593;SDS011;33199;47.590;8.300;2023-03-23T02:41:23;1.50;;;1.40;;
30593;SDS011;33199;47.590;8.300;2023-03-23T02:43:53;2.15;;;1.50;;
30593;SDS011;33199;47.590;8.300;2023-03-23T02:46:20;1.40;;;1.13;;
30593;SDS011;33199;47.590;8.300;2023-03-23T02:48:47;1.90;;;1.40;;
30593;SDS011;33199;47.590;8.300;2023-03-23T02:51:18;1.40;;;1.30;;
30593;SDS011;33199;47.590;8.300;2023-03-23T02:53:45;1.55;;;1.45;;
30593;SDS011;33199;47.590;8.300;2023-03-23T02:56:14;1.55;;;1.42;;
30593;SDS011;33199;47.590;8.300;2023-03-23T02:58:40;1.55;;;1.45;;
30593;SDS011;33199;47.590;8.300;2023-03-23T03:01:44;1.92;;;1.50;;
30593;SDS011;33199;47.590;8.300;2023-03-23T03:04:11;1.25;;;1.10;;
30593;SDS011;33199;47.590;8.300;2023-03-23T03:06:45;1.58;;;1.48;;
30593;SDS011;33199;47.590;8.300;2023-03-23T03:09:39;1.25;;;1.15;;
30593;SDS011;33199;47.590;8.300;2023-03-23T03:14:54;1.70;;;1.60;;
30593;SDS011;33199;47.590;8.300;2023-03-23T03:18:21;1.70;;;1.60;;
30593;SDS011;33199;47.590;8.300;2023-03-23T03:20:41;1.17;;;1.17;;
30593;SDS011;33199;47.590;8.300;2023-03-23T03:23:11;1.58;;;1.48;;
30593;SDS011;33199;47.590;8.300;2023-03-23T03:25:40;2.38;;;1.60;;
30593;SDS011;33199;47.590;8.300;2023-03-23T03:28:15;1.40;;;1.30;;
30593;SDS011;33199;47.590;8.300;2023-03-23T03:30:42;1.38;;;1.27;;
30593;SDS011;33199;47.590;8.300;2023-03-23T03:33:10;1.52;;;1.42;;
30593;SDS011;33199;47.590;8.300;2023-03-23T03:35:37;1.77;;;1.57;;
30593;SDS011;33199;47.590;8.300;2023-03-23T03:38:06;1.45;;;1.35;;
30593;SDS011;33199;47.590;8.300;2023-03-23T03:40:33;1.90;;;1.67;;
30593;SDS011;33199;47.590;8.300;2023-03-23T03:42:59;1.35;;;1.25;;
30593;SDS011;33199;47.590;8.300;2023-03-23T03:45:24;1.50;;;1.40;;
30593;SDS011;33199;47.590;8.300;2023-03-23T03:47:50;1.35;;;1.25;;
30593;SDS011;33199;47.590;8.300;2023-03-23T03:50:16;1.55;;;1.38;;
30593;SDS011;33199;47.590;8.300;2023-03-23T03:52:41;1.52;;;1.42;;
30593;SDS011;33199;47.590;8.300;2023-03-23T03:55:08;1.40;;;1.30;;
30593;SDS011;33199;47.590;8.300;2023-03-23T03:57:36;1.30;;;1.20;;
30593;SDS011;33199;47.590;8.300;2023-03-23T04:00:02;1.60;;;1.50;;
30593;SDS011;33199;47.590;8.300;2023-03-23T04:02:39;1.77;;;1.67;;
30593;SDS011;33199;47.590;8.300;2023-03-23T04:05:12;1.55;;;1.45;;
30593;SDS011;33199;47.590;8.300;2023-03-23T04:07:38;1.83;;;1.30;;
30593;SDS011;33199;47.590;8.300;2023-03-23T04:10:08;1.55;;;1.13;;
30593;SDS011;33199;47.590;8.300;2023-03-23T04:12:36;1.35;;;1.25;;
30593;SDS011;33199;47.590;8.300;2023-03-23T04:15:02;1.42;;;1.40;;
30593;SDS011;33199;47.590;8.300;2023-03-23T04:17:28;1.27;;;1.17;;
30593;SDS011;33199;47.590;8.300;2023-03-23T04:19:54;1.25;;;1.15;;
30593;SDS011;33199;47.590;8.300;2023-03-23T04:22:22;1.60;;;1.50;;
30593;SDS011;33199;47.590;8.300;2023-03-23T04:24:55;1.45;;;1.35;;
30593;SDS011;33199;47.590;8.300;2023-03-23T04:27:23;1.63;;;1.52;;
30593;SDS011;33199;47.590;8.300;2023-03-23T04:29:50;1.50;;;1.38;;
30593;SDS011;33199;47.590;8.300;2023-03-23T04:32:16;1.75;;;1.40;;
30593;SDS011;33199;47.590;8.300;2023-03-23T04:37:10;1.35;;;1.25;;
30593;SDS011;33199;47.590;8.300;2023-03-23T04:39:35;1.30;;;1.20;;
30593;SDS011;33199;47.590;8.300;2023-03-23T04:42:01;1.52;;;1.42;;
30593;SDS011;33199;47.590;8.300;2023-03-23T04:44:27;2.00;;;1.60;;
30593;SDS011;33199;47.590;8.300;2023-03-23T04:46:54;1.48;;;1.35;;
30593;SDS011;33199;47.590;8.300;2023-03-23T04:49:19;2.33;;;1.58;;
30593;SDS011;33199;47.590;8.300;2023-03-23T04:51:45;3.17;;;1.10;;
30593;SDS011;33199;47.590;8.300;2023-03-23T04:54:12;1.50;;;1.40;;
30593;SDS011;33199;47.590;8.300;2023-03-23T04:56:37;1.65;;;1.55;;
30593;SDS011;33199;47.590;8.300;2023-03-23T04:59:03;2.55;;;1.33;;
30593;SDS011;33199;47.590;8.300;2023-03-23T05:01:31;1.40;;;1.30;;
30593;SDS011;33199;47.590;8.300;2023-03-23T05:03:56;1.35;;;1.30;;
30593;SDS011;33199;47.590;8.300;2023-03-23T05:06:22;2.08;;;1.20;;
30593;SDS011;33199;47.590;8.300;2023-03-23T05:08:48;1.33;;;1.30;;
30593;SDS011;33199;47.590;8.300;2023-03-23T05:11:13;1.50;;;1.40;;
30593;SDS011;33199;47.590;8.300;2023-03-23T05:13:39;1.73;;;1.60;;
30593;SDS011;33199;47.590;8.300;2023-03-23T05:16:05;1.50;;;1.40;;
30593;SDS011;33199;47.590;8.300;2023-03-23T05:18:31;1.40;;;1.30;;
30593;SDS011;33199;47.590;8.300;2023-03-23T05:21:01;2.35;;;1.70;;
30593;SDS011;33199;47.590;8.300;2023-03-23T05:23:28;1.13;;;1.13;;
30593;SDS011;33199;47.590;8.300;2023-03-23T05:25:56;3.25;;;2.60;;
30593;SDS011;33199;47.590;8.300;2023-03-23T05:28:25;2.72;;;2.33;;
30593;SDS011;33199;47.590;8.300;2023-03-23T05:30:51;3.42;;;2.33;;
30593;SDS011;33199;47.590;8.300;2023-03-23T05:33:18;2.53;;;2.25;;
30593;SDS011;33199;47.590;8.300;2023-03-23T05:35:48;3.33;;;2.65;;
30593;SDS011;33199;47.590;8.300;2023-03-23T05:38:14;3.95;;;2.65;;
30593;SDS011;33199;47.590;8.300;2023-03-23T05:40:41;16.05;;;4.00;;
30593;SDS011;33199;47.590;8.300;2023-03-23T05:43:08;8.75;;;2.92;;
30593;SDS011;33199;47.590;8.300;2023-03-23T05:45:34;9.35;;;3.67;;
30593;SDS011;33199;47.590;8.300;2023-03-23T05:48:00;7.93;;;3.15;;
30593;SDS011;33199;47.590;8.300;2023-03-23T05:50:25;7.22;;;2.78;;
30593;SDS011;33199;47.590;8.300;2023-03-23T05:52:52;13.85;;;3.50;;
30593;SDS011;33199;47.590;8.300;2023-03-23T05:55:20;10.30;;;3.40;;
30593;SDS011;33199;47.590;8.300;2023-03-23T05:57:46;11.15;;;3.10;;
30593;SDS011;33199;47.590;8.300;2023-03-23T06:00:12;12.77;;;3.80;;
30593;SDS011;33199;47.590;8.300;2023-03-23T06:02:39;9.43;;;3.70;;
30593;SDS011;33199;47.590;8.300;2023-03-23T06:05:09;14.50;;;3.72;;
30593;SDS011;33199;47.590;8.300;2023-03-23T06:07:35;11.00;;;3.78;;
30593;SDS011;33199;47.590;8.300;2023-03-23T06:10:02;11.38;;;3.13;;
30593;SDS011;33199;47.590;8.300;2023-03-23T06:12:29;11.77;;;3.60;;
30593;SDS011;33199;47.590;8.300;2023-03-23T06:14:56;12.18;;;3.65;;
30593;SDS011;33199;47.590;8.300;2023-03-23T06:17:22;5.93;;;2.97;;
30593;SDS011;33199;47.590;8.300;2023-03-23T06:19:47;7.50;;;2.88;;
30593;SDS011;33199;47.590;8.300;2023-03-23T06:22:15;8.82;;;3.13;;
30593;SDS011;33199;47.590;8.300;2023-03-23T06:24:43;8.00;;;3.22;;
30593;SDS011;33199;47.590;8.300;2023-03-23T06:27:09;6.28;;;2.67;;
30593;SDS011;33199;47.590;8.300;2023-03-23T06:29:35;9.60;;;3.28;;
30593;SDS011;33199;47.590;8.300;2023-03-23T06:32:02;12.25;;;3.00;;
30593;SDS011;33199;47.590;8.300;2023-03-23T06:34:29;8.95;;;4.20;;
30593;SDS011;33199;47.590;8.300;2023-03-23T06:36:56;7.57;;;3.00;;
30593;SDS011;33199;47.590;8.300;2023-03-23T06:39:21;6.18;;;3.05;;
30593;SDS011;33199;47.590;8.300;2023-03-23T06:41:47;10.40;;;3.55;;
30593;SDS011;33199;47.590;8.300;2023-03-23T06:44:15;5.20;;;2.85;;
30593;SDS011;33199;47.590;8.300;2023-03-23T06:46:41;12.38;;;3.08;;
30593;SDS011;33199;47.590;8.300;2023-03-23T06:49:07;8.77;;;3.20;;
30593;SDS011;33199;47.590;8.300;2023-03-23T06:51:35;5.73;;;2.93;;
30593;SDS011;33199;47.590;8.300;2023-03-23T06:54:01;6.40;;;2.90;;
30593;SDS011;33199;47.590;8.300;2023-03-23T06:56:27;10.75;;;3.03;;
30593;SDS011;33199;47.590;8.300;2023-03-23T06:58:54;8.93;;;3.03;;
30593;SDS011;33199;47.590;8.300;2023-03-23T07:01:20;10.77;;;3.22;;
30593;SDS011;33199;47.590;8.300;2023-03-23T07:03:47;7.43;;;3.30;;
30593;SDS011;33199;47.590;8.300;2023-03-23T07:06:13;9.70;;;3.35;;
30593;SDS011;33199;47.590;8.300;2023-03-23T07:08:39;8.38;;;3.17;;
30593;SDS011;33199;47.590;8.300;2023-03-23T07:11:05;5.43;;;2.60;;
30593;SDS011;33199;47.590;8.300;2023-03-23T07:13:31;8.45;;;2.70;;
30593;SDS011;33199;47.590;8.300;2023-03-23T07:15:57;8.80;;;3.63;;
30593;SDS011;33199;47.590;8.300;2023-03-23T07:18:22;7.07;;;3.03;;
30593;SDS011;33199;47.590;8.300;2023-03-23T07:20:49;5.97;;;3.13;;
30593;SDS011;33199;47.590;8.300;2023-03-23T07:23:16;11.77;;;2.80;;
30593;SDS011;33199;47.590;8.300;2023-03-23T07:25:43;6.93;;;2.67;;
30593;SDS011;33199;47.590;8.300;2023-03-23T07:28:10;8.23;;;3.10;;
30593;SDS011;33199;47.590;8.300;2023-03-23T07:30:36;4.35;;;2.45;;
30593;SDS011;33199;47.590;8.300;2023-03-23T07:33:06;6.25;;;2.88;;
30593;SDS011;33199;47.590;8.300;2023-03-23T07:35:33;3.80;;;2.28;;
30593;SDS011;33199;47.590;8.300;2023-03-23T07:37:59;5.15;;;2.80;;
30593;SDS011;33199;47.590;8.300;2023-03-23T07:40:25;8.68;;;3.58;;
30593;SDS011;33199;47.590;8.300;2023-03-23T07:42:55;4.60;;;2.65;;
30593;SDS011;33199;47.590;8.300;2023-03-23T07:45:22;7.30;;;2.40;;
30593;SDS011;33199;47.590;8.300;2023-03-23T07:47:48;8.05;;;2.80;;
30593;SDS011;33199;47.590;8.300;2023-03-23T07:50:14;5.60;;;2.53;;
30593;SDS011;33199;47.590;8.300;2023-03-23T07:52:40;6.28;;;2.58;;
30593;SDS011;33199;47.590;8.300;2023-03-23T07:55:07;5.43;;;2.60;;
30593;SDS011;33199;47.590;8.300;2023-03-23T07:57:36;4.72;;;2.42;;
30593;SDS011;33199;47.590;8.300;2023-03-23T08:00:03;3.05;;;2.35;;
30593;SDS011;33199;47.590;8.300;2023-03-23T08:02:36;11.18;;;2.67;;
30593;SDS011;33199;47.590;8.300;2023-03-23T08:05:01;8.45;;;2.80;;
30593;SDS011;33199;47.590;8.300;2023-03-23T08:07:27;5.63;;;2.55;;
30593;SDS011;33199;47.590;8.300;2023-03-23T08:09:53;8.18;;;2.80;;
30593;SDS011;33199;47.590;8.300;2023-03-23T08:12:18;6.15;;;3.03;;
30593;SDS011;33199;47.590;8.300;2023-03-23T08:14:44;6.10;;;2.55;;
30593;SDS011;33199;47.590;8.300;2023-03-23T08:17:10;6.07;;;2.60;;
30593;SDS011;33199;47.590;8.300;2023-03-23T08:19:36;4.72;;;2.60;;
30593;SDS011;33199;47.590;8.300;2023-03-23T08:22:04;6.40;;;2.72;;
30593;SDS011;33199;47.590;8.300;2023-03-23T08:24:30;3.88;;;2.53;;
30593;SDS011;33199;47.590;8.300;2023-03-23T08:26:57;6.00;;;2.42;;
30593;SDS011;33199;47.590;8.300;2023-03-23T08:29:24;3.50;;;2.38;;
30593;SDS011;33199;47.590;8.300;2023-03-23T08:31:49;4.90;;;2.53;;
30593;SDS011;33199;47.590;8.300;2023-03-23T08:34:15;5.35;;;2.40;;
30593;SDS011;33199;47.590;8.300;2023-03-23T08:36:41;4.50;;;2.45;;
30593;SDS011;33199;47.590;8.300;2023-03-23T08:39:09;8.07;;;2.40;;
30593;SDS011;33199;47.590;8.300;2023-03-23T08:41:35;5.13;;;2.80;;
30593;SDS011;33199;47.590;8.300;2023-03-23T08:44:01;3.63;;;2.53;;
30593;SDS011;33199;47.590;8.300;2023-03-23T08:46:26;3.47;;;2.10;;
30593;SDS011;33199;47.590;8.300;2023-03-23T08:48:52;3.28;;;2.17;;
30593;SDS011;33199;47.590;8.300;2023-03-23T08:51:19;3.42;;;2.08;;
30593;SDS011;33199;47.590;8.300;2023-03-23T08:53:45;5.60;;;2.67;;
30593;SDS011;33199;47.590;8.300;2023-03-23T08:56:11;7.53;;;2.58;;
30593;SDS011;33199;47.590;8.300;2023-03-23T08:58:39;4.30;;;2.20;;
30593;SDS011;33199;47.590;8.300;2023-03-23T09:01:05;6.30;;;2.30;;
30593;SDS011;33199;47.590;8.300;2023-03-23T09:03:32;5.30;;;2.92;;
30593;SDS011;33199;47.590;8.300;2023-03-23T09:06:00;5.47;;;2.25;;
30593;SDS011;33199;47.590;8.300;2023-03-23T09:08:27;3.78;;;1.73;;
30593;SDS011;33199;47.590;8.300;2023-03-23T09:11:04;7.47;;;2.40;;
30593;SDS011;33199;47.590;8.300;2023-03-23T09:13:33;2.50;;;2.10;;
30593;SDS011;33199;47.590;8.300;2023-03-23T09:15:59;5.32;;;2.40;;
30593;SDS011;33199;47.590;8.300;2023-03-23T09:18:25;4.10;;;2.15;;
30593;SDS011;33199;47.590;8.300;2023-03-23T09:20:53;2.63;;;1.95;;
30593;SDS011;33199;47.590;8.300;2023-03-23T09:23:19;2.88;;;2.33;;
30593;SDS011;33199;47.590;8.300;2023-03-23T09:25:45;3.50;;;2.17;;
30593;SDS011;33199;47.590;8.300;2023-03-23T09:28:12;4.28;;;2.20;;
30593;SDS011;33199;47.590;8.300;2023-03-23T09:30:38;5.22;;;2.05;;
30593;SDS011;33199;47.590;8.300;2023-03-23T09:33:05;3.95;;;2.42;;
30593;SDS011;33199;47.590;8.300;2023-03-23T09:35:33;4.80;;;2.38;;
30593;SDS011;33199;47.590;8.300;2023-03-23T09:38:00;6.07;;;2.22;;
30593;SDS011;33199;47.590;8.300;2023-03-23T09:40:46;4.80;;;1.95;;
30593;SDS011;33199;47.590;8.300;2023-03-23T09:53:53;2.75;;;2.28;;
30593;SDS011;33199;47.590;8.300;2023-03-23T09:56:23;4.90;;;1.98;;
30593;SDS011;33199;47.590;8.300;2023-03-23T09:59:00;3.50;;;1.83;;
30593;SDS011;33199;47.590;8.300;2023-03-23T10:01:35;4.80;;;2.08;;
30593;SDS011;33199;47.590;8.300;2023-03-23T10:04:05;3.00;;;1.90;;
30593;SDS011;33199;47.590;8.300;2023-03-23T10:06:38;6.43;;;2.10;;
30593;SDS011;33199;47.590;8.300;2023-03-23T10:09:04;8.32;;;2.22;;
30593;SDS011;33199;47.590;8.300;2023-03-23T10:16:37;3.25;;;2.00;;
30593;SDS011;33199;47.590;8.300;2023-03-23T10:21:52;2.28;;;1.83;;
30593;SDS011;33199;47.590;8.300;2023-03-23T10:24:21;5.05;;;2.00;;
30593;SDS011;33199;47.590;8.300;2023-03-23T10:27:17;6.75;;;2.10;;
30593;SDS011;33199;47.590;8.300;2023-03-23T10:29:50;2.58;;;1.77;;
30593;SDS011;33199;47.590;8.300;2023-03-23T10:32:21;8.93;;;1.90;;
30593;SDS011;33199;47.590;8.300;2023-03-23T10:35:03;2.33;;;1.70;;
30593;SDS011;33199;47.590;8.300;2023-03-23T10:37:36;1.95;;;1.60;;
30593;SDS011;33199;47.590;8.300;2023-03-23T10:40:06;3.72;;;2.20;;
30593;SDS011;33199;47.590;8.300;2023-03-23T10:42:40;3.38;;;1.77;;
30593;SDS011;33199;47.590;8.300;2023-03-23T10:45:25;1.92;;;1.80;;
30593;SDS011;33199;47.590;8.300;2023-03-23T10:50:27;1.92;;;1.60;;
30593;SDS011;33199;47.590;8.300;2023-03-23T10:52:59;4.60;;;2.05;;
30593;SDS011;33199;47.590;8.300;2023-03-23T10:55:37;2.00;;;1.80;;
30593;SDS011;33199;47.590;8.300;2023-03-23T10:58:06;3.03;;;1.70;;
30593;SDS011;33199;47.590;8.300;2023-03-23T11:00:39;2.55;;;1.65;;
30593;SDS011;33199;47.590;8.300;2023-03-23T11:05:43;1.67;;;1.58;;
30593;SDS011;33199;47.590;8.300;2023-03-23T11:08:27;1.63;;;1.50;;
30593;SDS011;33199;47.590;8.300;2023-03-23T11:13:45;2.67;;;1.85;;
30593;SDS011;33199;47.590;8.300;2023-03-23T11:16:25;3.70;;;1.90;;
30593;SDS011;33199;47.590;8.300;2023-03-23T11:18:56;3.85;;;1.80;;
30593;SDS011;33199;47.590;8.300;2023-03-23T11:21:24;1.85;;;1.63;;
30593;SDS011;33199;47.590;8.300;2023-03-23T11:23:52;2.08;;;1.85;;
30593;SDS011;33199;47.590;8.300;2023-03-23T11:26:30;2.17;;;1.60;;
30593;SDS011;33199;47.590;8.300;2023-03-23T11:29:09;3.85;;;2.17;;
30593;SDS011;33199;47.590;8.300;2023-03-23T11:31:39;1.63;;;1.48;;
30593;SDS011;33199;47.590;8.300;2023-03-23T11:37:05;3.15;;;2.03;;
30593;SDS011;33199;47.590;8.300;2023-03-23T11:39:45;3.85;;;1.77;;
30593;SDS011;33199;47.590;8.300;2023-03-23T11:42:21;3.78;;;1.65;;
30593;SDS011;33199;47.590;8.300;2023-03-23T11:50:45;2.90;;;2.00;;
30593;SDS011;33199;47.590;8.300;2023-03-23T11:56:23;1.95;;;1.70;;
30593;SDS011;33199;47.590;8.300;2023-03-23T11:58:50;2.80;;;1.60;;
30593;SDS011;33199;47.590;8.300;2023-03-23T12:01:26;2.10;;;1.60;;
30593;SDS011;33199;47.590;8.300;2023-03-23T12:04:21;2.42;;;1.90;;
30593;SDS011;33199;47.590;8.300;2023-03-23T12:20:44;2.20;;;1.48;;
30593;SDS011;33199;47.590;8.300;2023-03-23T12:28:19;2.10;;;1.48;;
30593;SDS011;33199;47.590;8.300;2023-03-23T12:31:11;3.47;;;1.35;;
30593;SDS011;33199;47.590;8.300;2023-03-23T12:34:06;2.22;;;1.45;;
30593;SDS011;33199;47.590;8.300;2023-03-23T12:42:18;2.40;;;1.77;;
30593;SDS011;33199;47.590;8.300;2023-03-23T12:44:53;2.55;;;1.63;;
30593;SDS011;33199;47.590;8.300;2023-03-23T12:50:10;2.22;;;1.48;;
30593;SDS011;33199;47.590;8.300;2023-03-23T12:52:51;1.65;;;1.42;;
30593;SDS011;33199;47.590;8.300;2023-03-23T12:58:34;1.67;;;1.50;;
30593;SDS011;33199;47.590;8.300;2023-03-23T13:01:54;2.08;;;1.50;;
30593;SDS011;33199;47.590;8.300;2023-03-23T13:03:59;1.75;;;1.38;;
30593;SDS011;33199;47.590;8.300;2023-03-23T13:06:47;2.33;;;1.40;;
30593;SDS011;33199;47.590;8.300;2023-03-23T13:11:42;2.40;;;1.50;;
30593;SDS011;33199;47.590;8.300;2023-03-23T13:17:06;2.65;;;1.50;;
30593;SDS011;33199;47.590;8.300;2023-03-23T13:24:52;2.28;;;1.40;;
30593;SDS011;33199;47.590;8.300;2023-03-23T13:27:24;1.27;;;1.17;;
30593;SDS011;33199;47.590;8.300;2023-03-23T13:29:53;1.80;;;1.55;;
30593;SDS011;33199;47.590;8.300;2023-03-23T13:32:20;1.55;;;1.17;;
30593;SDS011;33199;47.590;8.300;2023-03-23T13:34:48;1.55;;;1.42;;
30593;SDS011;33199;47.590;8.300;2023-03-23T13:39:59;1.73;;;1.40;;
30593;SDS011;33199;47.590;8.300;2023-03-23T13:42:47;1.48;;;1.23;;
30593;SDS011;33199;47.590;8.300;2023-03-23T13:45:35;1.42;;;1.33;;
30593;SDS011;33199;47.590;8.300;2023-03-23T13:55:50;1.42;;;1.23;;
30593;SDS011;33199;47.590;8.300;2023-03-23T13:58:24;2.03;;;1.55;;
30593;SDS011;33199;47.590;8.300;2023-03-23T14:01:03;1.58;;;1.48;;
30593;SDS011;33199;47.590;8.300;2023-03-23T14:03:47;1.42;;;1.33;;
30593;SDS011;33199;47.590;8.300;2023-03-23T14:06:20;3.72;;;1.40;;
30593;SDS011;33199;47.590;8.300;2023-03-23T14:08:50;1.35;;;1.25;;
30593;SDS011;33199;47.590;8.300;2023-03-23T14:11:24;1.65;;;1.38;;
30593;SDS011;33199;47.590;8.300;2023-03-23T14:16:41;2.95;;;1.70;;
30593;SDS011;33199;47.590;8.300;2023-03-23T14:19:28;1.48;;;1.38;;
30593;SDS011;33199;47.590;8.300;2023-03-23T14:21:56;1.65;;;1.52;;
30593;SDS011;33199;47.590;8.300;2023-03-23T14:24:25;1.50;;;1.40;;
30593;SDS011;33199;47.590;8.300;2023-03-23T14:29:28;1.70;;;1.45;;
30593;SDS011;33199;47.590;8.300;2023-03-23T14:31:57;1.48;;;1.38;;
30593;SDS011;33199;47.590;8.300;2023-03-23T14:34:24;3.08;;;1.33;;
30593;SDS011;33199;47.590;8.300;2023-03-23T14:36:53;1.95;;;1.45;;
30593;SDS011;33199;47.590;8.300;2023-03-23T14:39:23;2.35;;;1.45;;
30593;SDS011;33199;47.590;8.300;2023-03-23T14:42:03;1.35;;;1.20;;
30593;SDS011;33199;47.590;8.300;2023-03-23T14:44:33;1.83;;;1.35;;
30593;SDS011;33199;47.590;8.300;2023-03-23T14:47:03;1.13;;;1.13;;
30593;SDS011;33199;47.590;8.300;2023-03-23T14:49:40;1.40;;;1.30;;
30593;SDS011;33199;47.590;8.300;2023-03-23T14:52:11;1.75;;;1.27;;
30593;SDS011;33199;47.590;8.300;2023-03-23T14:54:42;2.83;;;1.65;;
30593;SDS011;33199;47.590;8.300;2023-03-23T14:57:12;1.10;;;1.10;;
30593;SDS011;33199;47.590;8.300;2023-03-23T14:59:43;1.65;;;1.30;;
30593;SDS011;33199;47.590;8.300;2023-03-23T15:02:11;1.27;;;1.17;;
30593;SDS011;33199;47.590;8.300;2023-03-23T15:04:42;2.55;;;1.42;;
30593;SDS011;33199;47.590;8.300;2023-03-23T15:07:10;3.08;;;1.27;;
30593;SDS011;33199;47.590;8.300;2023-03-23T15:09:41;1.73;;;1.42;;
30593;SDS011;33199;47.590;8.300;2023-03-23T15:12:11;1.40;;;1.30;;
30593;SDS011;33199;47.590;8.300;2023-03-23T15:14:46;1.85;;;1.27;;
30593;SDS011;33199;47.590;8.300;2023-03-23T15:17:22;1.67;;;1.30;;
30593;SDS011;33199;47.590;8.300;2023-03-23T15:19:49;1.40;;;1.30;;
30593;SDS011;33199;47.590;8.300;2023-03-23T15:32:22;2.20;;;1.50;;
30593;SDS011;33199;47.590;8.300;2023-03-23T15:34:57;2.88;;;1.40;;
30593;SDS011;33199;47.590;8.300;2023-03-23T15:37:29;1.27;;;1.17;;
30593;SDS011;33199;47.590;8.300;2023-03-23T15:39:56;1.98;;;1.30;;
30593;SDS011;33199;47.590;8.300;2023-03-23T15:42:27;3.10;;;1.60;;
30593;SDS011;33199;47.590;8.300;2023-03-23T15:47:37;1.25;;;1.17;;
30593;SDS011;33199;47.590;8.300;2023-03-23T15:50:16;1.85;;;1.30;;
30593;SDS011;33199;47.590;8.300;2023-03-23T15:52:44;1.38;;;1.27;;
30593;SDS011;33199;47.590;8.300;2023-03-23T15:55:21;1.25;;;1.23;;
30593;SDS011;33199;47.590;8.300;2023-03-23T15:57:52;1.77;;;1.20;;
30593;SDS011;33199;47.590;8.300;2023-03-23T16:00:23;1.63;;;1.30;;
30593;SDS011;33199;47.590;8.300;2023-03-23T16:05:21;1.50;;;1.40;;
30593;SDS011;33199;47.590;8.300;2023-03-23T16:07:46;3.45;;;1.10;;
30593;SDS011;33199;47.590;8.300;2023-03-23T16:10:16;1.58;;;1.48;;
30593;SDS011;33199;47.590;8.300;2023-03-23T16:12:44;1.40;;;1.17;;
30593;SDS011;33199;47.590;8.300;2023-03-23T16:15:10;1.02;;;1.02;;
30593;SDS011;33199;47.590;8.300;2023-03-23T16:17:36;4.10;;;1.42;;
30593;SDS011;33199;47.590;8.300;2023-03-23T16:20:08;2.20;;;1.17;;
30593;SDS011;33199;47.590;8.300;2023-03-23T16:22:45;1.30;;;1.20;;
30593;SDS011;33199;47.590;8.300;2023-03-23T16:25:12;2.00;;;1.10;;
30593;SDS011;33199;47.590;8.300;2023-03-23T16:27:39;1.05;;;1.05;;
30593;SDS011;33199;47.590;8.300;2023-03-23T16:30:16;1.33;;;1.23;;
30593;SDS011;33199;47.590;8.300;2023-03-23T16:32:44;1.27;;;1.17;;
30593;SDS011;33199;47.590;8.300;2023-03-23T16:35:11;1.30;;;1.20;;
30593;SDS011;33199;47.590;8.300;2023-03-23T16:37:37;1.42;;;1.30;;
30593;SDS011;33199;47.590;8.300;2023-03-23T16:40:03;1.60;;;1.30;;
30593;SDS011;33199;47.590;8.300;2023-03-23T16:42:30;1.77;;;1.40;;
30593;SDS011;33199;47.590;8.300;2023-03-23T16:44:55;2.05;;;1.40;;
30593;SDS011;33199;47.590;8.300;2023-03-23T16:47:21;0.95;;;0.95;;
30593;SDS011;33199;47.590;8.300;2023-03-23T16:49:50;1.30;;;1.20;;
30593;SDS011;33199;47.590;8.300;2023-03-23T16:52:16;1.80;;;1.10;;
30593;SDS011;33199;47.590;8.300;2023-03-23T16:54:42;1.20;;;1.10;;
30593;SDS011;33199;47.590;8.300;2023-03-23T16:57:08;1.90;;;1.23;;
30593;SDS011;33199;47.590;8.300;2023-03-23T16:59:34;1.10;;;1.00;;
30593;SDS011;33199;47.590;8.300;2023-03-23T17:01:59;1.38;;;1.27;;
30593;SDS011;33199;47.590;8.300;2023-03-23T17:04:31;1.45;;;1.20;;
30593;SDS011;33199;47.590;8.300;2023-03-23T17:06:57;1.73;;;1.20;;
30593;SDS011;33199;47.590;8.300;2023-03-23T17:09:26;1.55;;;1.20;;
30593;SDS011;33199;47.590;8.300;2023-03-23T17:11:52;0.95;;;0.90;;
30593;SDS011;33199;47.590;8.300;2023-03-23T17:14:20;1.10;;;1.02;;
30593;SDS011;33199;47.590;8.300;2023-03-23T17:16:46;1.20;;;1.10;;
30593;SDS011;33199;47.590;8.300;2023-03-23T17:19:12;1.30;;;1.20;;